Time;durP1;ratioP1;P1;durP2;ratioP2;P2;SDS_P1;SDS_P2;PMS_P1;PMS_P2;Temp;Humidity;BMP_temperature;BMP_pressure;BME280_temperature;BME280_humidity;BME280_pressure;Samples;Min_cycle;Max_cycle;Signal;HPM_P1;HPM_P2
2021/10/22 00:02:00;;;;;;;6.28;1.80;;;;;;;14.24;45.23;101132.47;4989777;28;20178;-65
2021/10/22 00:04:27;;;;;;;4.72;1.83;;;;;;;14.21;45.16;101127.25;4986883;28;20117;-66
2021/10/22 00:06:54;;;;;;;5.25;2.22;;;;;;;14.19;45.45;101121.03;4977237;28;20077;-65
2021/10/22 00:09:20;;;;;;;6.60;1.88;;;;;;;14.19;45.54;101130.09;4984060;28;20053;-66
2021/10/22 00:11:47;;;;;;;5.35;1.63;;;;;;;14.17;45.72;101118.41;4989966;28;20084;-66
2021/10/22 00:14:13;;;;;;;4.95;1.70;;;;;;;14.17;45.74;101118.41;4986584;28;20081;-65
2021/10/22 00:16:42;;;;;;;7.93;2.00;;;;;;;14.17;45.51;101128.44;4987927;28;20069;-64
2021/10/22 00:19:09;;;;;;;7.35;2.08;;;;;;;14.15;45.29;101130.47;4987598;28;20077;-65
2021/10/22 00:21:36;;;;;;;4.70;1.70;;;;;;;14.13;45.69;101127.84;4988613;28;20129;-64
2021/10/22 00:24:04;;;;;;;6.97;1.70;;;;;;;14.13;45.55;101127.84;4968825;28;20051;-65
2021/10/22 00:26:31;;;;;;;5.72;1.80;;;;;;;14.14;45.50;101136.91;4987908;28;20054;-65
2021/10/22 00:28:58;;;;;;;4.55;1.70;;;;;;;14.14;45.80;101135.03;4972298;28;20077;-65
2021/10/22 00:31:25;;;;;;;4.57;1.60;;;;;;;14.14;45.54;101139.63;4989450;28;20055;-65
2021/10/22 00:33:52;;;;;;;5.20;1.80;;;;;;;14.14;45.87;101135.03;4965963;28;20043;-65
2021/10/22 00:36:19;;;;;;;5.45;1.67;;;;;;;14.16;45.83;101145.84;4995555;28;20679;-65
2021/10/22 00:38:46;;;;;;;5.03;1.48;;;;;;;14.17;45.74;101134.78;4978105;28;20113;-65
2021/10/22 00:41:15;;;;;;;6.40;1.55;;;;;;;14.18;45.88;101139.25;4993080;28;20653;-65
2021/10/22 00:43:42;;;;;;;4.50;1.40;;;;;;;14.19;45.77;101142.88;4990586;28;20137;-65
2021/10/22 00:46:09;;;;;;;4.68;1.40;;;;;;;14.18;45.80;101138.38;4992609;28;20077;-65
2021/10/22 00:48:37;;;;;;;5.00;1.60;;;;;;;14.18;45.58;101133.81;4992602;28;20497;-65
2021/10/22 00:51:05;;;;;;;4.85;1.40;;;;;;;14.17;45.46;101139.38;4990797;28;20433;-65
2021/10/22 00:53:37;;;;;;;3.97;1.30;;;;;;;14.18;45.38;101139.25;4987762;28;21023;-65
2021/10/22 00:56:09;;;;;;;3.90;1.43;;;;;;;14.17;45.59;101142.09;4974852;28;20073;-65
2021/10/22 00:58:37;;;;;;;4.32;1.50;;;;;;;14.15;45.74;101144.97;4992049;28;20453;-65
2021/10/22 01:01:05;;;;;;;4.63;1.40;;;;;;;14.15;45.61;101138.66;4992533;28;20038;-65
2021/10/22 01:03:33;;;;;;;6.38;1.70;;;;;;;14.13;45.29;101140.63;4990930;28;20054;-65
2021/10/22 01:06:01;;;;;;;4.10;1.35;;;;;;;14.13;45.34;101151.53;4992444;28;20359;-65
2021/10/22 01:08:31;;;;;;;5.13;1.50;;;;;;;14.11;45.50;101143.47;4987513;28;20082;-65
2021/10/22 01:11:01;;;;;;;5.47;1.70;;;;;;;14.08;45.60;101151.91;4993230;28;20512;-65
2021/10/22 01:13:28;;;;;;;5.50;1.42;;;;;;;14.06;45.31;101154.75;4992572;28;20077;-65
2021/10/22 01:15:56;;;;;;;6.03;1.60;;;;;;;14.04;45.08;101159.44;4993082;28;20113;-65
2021/10/22 01:18:27;;;;;;;5.53;1.60;;;;;;;14.03;45.25;101152.25;4992613;28;20058;-65
2021/10/22 01:21:02;;;;;;;4.63;1.80;;;;;;;13.99;45.15;101149.88;4993397;28;20471;-65
2021/10/22 01:23:30;;;;;;;6.38;1.50;;;;;;;13.94;45.39;101155.66;4992855;28;20065;-65
2021/10/22 01:25:57;;;;;;;6.22;1.50;;;;;;;13.90;45.13;101158.75;4987230;28;20393;-65
2021/10/22 01:28:24;;;;;;;6.35;1.55;;;;;;;13.86;45.18;101154.50;4989662;28;20081;-65
2021/10/22 01:30:51;;;;;;;4.88;1.73;;;;;;;13.82;45.14;101153.03;4992728;28;20461;-65
2021/10/22 01:33:18;;;;;;;4.18;1.40;;;;;;;13.78;45.10;101146.91;4996130;28;20461;-65
2021/10/22 01:35:46;;;;;;;5.95;1.50;;;;;;;13.76;45.59;101146.13;4999770;28;20137;-65
2021/10/22 01:38:20;;;;;;;6.22;1.75;;;;;;;13.76;45.50;101146.13;4991298;28;20084;-66
2021/10/22 01:40:49;;;;;;;5.80;1.60;;;;;;;13.73;45.47;101140.94;4991649;28;20069;-65
2021/10/22 01:43:16;;;;;;;7.07;1.73;;;;;;;13.73;45.39;101140.06;4990124;28;20682;-64
2021/10/22 01:45:43;;;;;;;6.10;1.63;;;;;;;13.74;45.58;101144.53;4992010;28;20057;-65
2021/10/22 01:48:10;;;;;;;5.80;1.70;;;;;;;13.72;45.48;101144.66;4991320;28;20445;-65
2021/10/22 01:50:37;;;;;;;7.75;2.22;;;;;;;13.72;45.74;101144.66;4991244;28;20433;-65
2021/10/22 01:53:05;;;;;;;5.22;1.60;;;;;;;13.73;45.75;101140.94;5002255;28;20045;-64
2021/10/22 01:55:33;;;;;;;4.32;1.60;;;;;;;13.71;45.83;101143.78;5011377;28;20052;-65
2021/10/22 01:58:01;;;;;;;5.00;1.55;;;;;;;13.71;46.07;101134.72;5001057;28;20058;-64
2021/10/22 02:00:27;;;;;;;5.82;1.67;;;;;;;13.72;45.68;101150.09;4990586;28;20101;-64
2021/10/22 02:02:54;;;;;;;4.05;1.70;;;;;;;13.73;45.79;101146.41;4992984;28;20073;-64
2021/10/22 02:05:20;;;;;;;5.07;1.98;;;;;;;13.74;45.60;101145.41;4999424;28;20050;-65
2021/10/22 02:07:47;;;;;;;4.43;1.70;;;;;;;13.73;45.86;101138.22;5003046;28;20141;-65
2021/10/22 02:10:14;;;;;;;6.78;2.10;;;;;;;13.74;45.84;101139.09;4991479;28;20457;-65
2021/10/22 02:12:40;;;;;;;4.22;1.83;;;;;;;13.73;45.83;101131.88;4992480;28;20082;-65
2021/10/22 02:15:07;;;;;;;6.03;1.80;;;;;;;13.73;45.52;101131.88;4990962;28;20108;-64
2021/10/22 02:17:35;;;;;;;5.00;1.77;;;;;;;13.73;45.67;101126.41;4991491;28;20133;-64
2021/10/22 02:20:04;;;;;;;4.72;1.70;;;;;;;13.74;45.72;101125.44;4990775;28;20070;-64
2021/10/22 02:22:31;;;;;;;5.05;1.90;;;;;;;13.71;45.68;101127.41;4990975;28;20465;-64
2021/10/22 02:24:58;;;;;;;5.55;2.05;;;;;;;13.70;45.64;101127.50;4990116;28;20505;-64
2021/10/22 02:27:25;;;;;;;7.40;2.30;;;;;;;13.70;45.87;101127.50;4989991;28;20054;-64
2021/10/22 02:30:06;;;;;;;7.80;1.90;;;;;;;13.67;45.63;101125.88;4983474;28;20054;-64
2021/10/22 02:32:32;;;;;;;7.72;1.98;;;;;;;13.66;45.28;101124.16;4989795;28;20042;-65
2021/10/22 02:34:59;;;;;;;7.15;1.90;;;;;;;13.66;45.35;101120.56;4990298;28;20046;-65
2021/10/22 02:37:26;;;;;;;4.68;1.63;;;;;;;13.65;45.36;101132.47;4985809;28;20077;-65
2021/10/22 02:39:52;;;;;;;5.35;2.03;;;;;;;13.61;45.30;101125.47;4990390;28;20054;-64
2021/10/22 02:42:19;;;;;;;6.72;1.90;;;;;;;13.61;45.27;101133.66;4991316;28;20084;-64
2021/10/22 02:44:46;;;;;;;6.43;2.03;;;;;;;13.56;44.95;101131.28;4990577;28;20121;-65
2021/10/22 02:47:12;;;;;;;7.00;2.28;;;;;;;13.53;45.16;101134.22;4990914;28;20129;-64
2021/10/22 02:49:39;;;;;;;4.47;1.70;;;;;;;13.50;45.36;101129.03;4973271;28;20054;-64
2021/10/22 02:52:05;;;;;;;4.32;1.70;;;;;;;13.47;45.13;101123.78;4992192;28;20078;-64
2021/10/22 02:54:32;;;;;;;6.18;1.83;;;;;;;13.44;45.16;101118.56;4989919;28;20054;-64
2021/10/22 02:56:59;;;;;;;6.40;1.90;;;;;;;13.41;45.11;101126.97;4990641;28;20054;-64
2021/10/22 02:59:26;;;;;;;5.30;2.10;;;;;;;13.38;45.12;101129.06;4971921;28;20518;-64
2021/10/22 03:01:52;;;;;;;5.07;1.70;;;;;;;13.35;45.06;101124.69;4991270;28;20057;-64
2021/10/22 03:04:19;;;;;;;7.40;2.15;;;;;;;13.32;45.27;101124.94;4992274;28;20054;-64
2021/10/22 03:06:46;;;;;;;7.22;2.03;;;;;;;13.29;45.07;101123.28;4988990;28;20053;-64
2021/10/22 03:09:12;;;;;;;5.35;1.73;;;;;;;13.27;45.37;101125.25;4989888;28;20081;-65
2021/10/22 03:11:39;;;;;;;7.20;1.88;;;;;;;13.25;45.56;101119.06;4989667;28;20165;-65
2021/10/22 03:14:06;;;;;;;4.25;1.80;;;;;;;13.24;45.09;101122.78;4988572;28;20130;-64
2021/10/22 03:16:36;;;;;;;6.32;2.28;;;;;;;13.23;45.20;101118.31;4989766;28;20061;-64
2021/10/22 03:19:02;;;;;;;7.72;2.05;;;;;;;13.22;45.21;101130.19;4988059;28;20113;-64
2021/10/22 03:21:29;;;;;;;8.02;2.10;;;;;;;13.20;45.29;101128.56;4990418;28;20382;-64
2021/10/22 03:23:56;;;;;;;6.60;2.30;;;;;;;13.18;45.31;101134.09;4983453;28;20046;-64
2021/10/22 03:26:24;;;;;;;6.50;2.08;;;;;;;13.18;45.26;101128.66;4990038;28;20077;-64
2021/10/22 03:28:51;;;;;;;7.60;2.10;;;;;;;13.17;45.37;101126.06;4989140;28;20078;-64
2021/10/22 03:31:18;;;;;;;6.63;1.92;;;;;;;13.15;45.05;101128.03;4990875;28;20134;-64
2021/10/22 03:33:44;;;;;;;6.38;2.30;;;;;;;13.13;45.26;101124.50;4990157;28;20061;-65
2021/10/22 03:36:11;;;;;;;5.25;1.73;;;;;;;13.10;45.06;101116.53;4990328;28;20524;-64
2021/10/22 03:38:38;;;;;;;6.63;1.92;;;;;;;13.07;45.14;101120.38;4972034;28;20051;-64
2021/10/22 03:41:05;;;;;;;6.85;2.40;;;;;;;13.08;45.03;101108.50;4990798;28;20049;-64
2021/10/22 03:43:33;;;;;;;8.40;2.20;;;;;;;13.06;45.01;101110.47;4988063;28;20060;-64
2021/10/22 03:46:00;;;;;;;8.88;2.30;;;;;;;13.02;45.20;101106.19;4988449;28;20097;-65
2021/10/22 03:48:27;;;;;;;4.60;1.95;;;;;;;13.01;44.87;101107.22;4988784;28;20046;-64
2021/10/22 03:50:54;;;;;;;4.95;2.00;;;;;;;13.00;44.84;101099.13;4989176;28;20608;-65
2021/10/22 03:53:21;;;;;;;6.47;2.03;;;;;;;12.98;45.16;101092.91;4991247;28;20054;-65
2021/10/22 03:55:49;;;;;;;5.63;2.20;;;;;;;12.96;44.97;101095.75;4972436;28;20108;-64
2021/10/22 03:58:18;;;;;;;4.70;1.52;;;;;;;12.93;44.91;101107.75;4988432;28;20054;-65
2021/10/22 04:00:46;;;;;;;8.18;2.40;;;;;;;12.92;44.71;101107.88;4988188;28;20050;-64
2021/10/22 04:03:14;;;;;;;6.85;2.33;;;;;;;12.91;44.94;101111.56;4989897;28;20050;-65
2021/10/22 04:05:45;;;;;;;6.55;2.08;;;;;;;12.90;44.56;101113.44;4987313;28;20074;-64
2021/10/22 04:08:11;;;;;;;5.70;2.15;;;;;;;12.86;44.82;101111.91;4990518;28;20517;-64
2021/10/22 04:10:41;;;;;;;6.43;1.90;;;;;;;12.85;45.15;101109.28;4987286;28;20054;-65
2021/10/22 04:13:11;;;;;;;5.70;2.38;;;;;;;12.86;44.53;101116.47;4992688;28;20050;-65
2021/10/22 04:15:40;;;;;;;5.00;2.00;;;;;;;12.81;44.79;101111.38;4991694;28;20053;-64
2021/10/22 04:18:07;;;;;;;6.65;2.08;;;;;;;12.80;44.89;101112.34;4992653;28;20472;-64
2021/10/22 04:20:34;;;;;;;6.28;2.88;;;;;;;12.77;44.66;101107.09;4991382;28;20077;-64
2021/10/22 04:23:06;;;;;;;6.28;2.30;;;;;;;12.74;44.68;101106.47;4990833;28;20504;-64
2021/10/22 04:25:34;;;;;;;4.30;1.52;;;;;;;12.70;44.64;101097.63;4991545;28;20078;-64
2021/10/22 04:28:01;;;;;;;7.25;1.90;;;;;;;12.69;45.08;101109.50;4993346;28;20104;-64
2021/10/22 04:30:28;;;;;;;8.23;2.10;;;;;;;12.69;45.00;101109.50;4992993;28;20116;-64
2021/10/22 04:32:55;;;;;;;7.18;2.10;;;;;;;12.70;44.85;101104.94;4993756;28;20066;-65
2021/10/22 04:35:22;;;;;;;6.15;2.03;;;;;;;12.68;44.75;101104.19;4997270;28;20062;-64
2021/10/22 04:40:32;;;;;;;;;;;;;;;12.44;45.20;101093.16;4992835;28;20536;-64
2021/10/22 04:43:03;;;;;;;6.20;1.98;;;;;;;12.60;44.76;101099.25;4993739;28;19921;-64
2021/10/22 04:45:33;;;;;;;6.35;1.90;;;;;;;12.63;44.75;101101.78;4992890;28;20146;-64
2021/10/22 04:48:02;;;;;;;5.50;2.10;;;;;;;12.61;44.83;101091.97;4992934;28;20082;-64
2021/10/22 04:50:31;;;;;;;8.93;2.15;;;;;;;12.61;44.83;101098.28;4992665;28;20054;-64
2021/10/22 04:52:57;;;;;;;7.38;2.40;;;;;;;12.59;44.81;101103.00;4996992;28;20556;-65
2021/10/22 04:55:26;;;;;;;6.93;2.08;;;;;;;12.60;44.97;101098.41;4992957;28;20116;-64
2021/10/22 04:57:53;;;;;;;6.78;2.20;;;;;;;12.58;44.83;101101.25;4975578;28;20351;-64
2021/10/22 05:00:21;;;;;;;7.13;2.67;;;;;;;12.60;44.95;101107.44;4992504;28;20545;-64
2021/10/22 05:02:48;;;;;;;7.18;2.45;;;;;;;12.57;45.19;101108.56;4992772;28;20089;-64
2021/10/22 05:05:15;;;;;;;6.07;2.58;;;;;;;12.58;44.96;101109.41;4997646;28;20157;-64
2021/10/22 05:07:43;;;;;;;6.05;2.60;;;;;;;12.58;45.14;101114.88;4993892;28;20085;-64
2021/10/22 05:10:10;;;;;;;7.60;2.42;;;;;;;12.62;44.96;101123.69;4991990;28;20050;-64
2021/10/22 05:12:38;;;;;;;6.90;2.40;;;;;;;12.60;44.57;101129.22;4993158;28;20055;-64
2021/10/22 05:15:07;;;;;;;6.65;2.53;;;;;;;12.61;44.62;101132.81;4974828;28;20042;-64
2021/10/22 05:17:33;;;;;;;6.78;2.90;;;;;;;12.58;44.60;101137.53;4992585;28;20051;-64
2021/10/22 05:20:02;;;;;;;7.97;2.90;;;;;;;12.61;44.52;101146.44;4990456;28;20421;-64
2021/10/22 05:22:29;;;;;;;8.20;3.13;;;;;;;12.56;44.29;101142.22;4987788;28;20057;-64
2021/10/22 05:24:56;;;;;;;6.80;3.03;;;;;;;12.55;44.51;101140.47;4991866;28;20062;-65
2021/10/22 05:27:23;;;;;;;5.95;2.40;;;;;;;12.53;44.73;101136.09;4990722;28;20050;-64
2021/10/22 05:29:50;;;;;;;6.45;2.75;;;;;;;12.51;44.73;101132.63;4991839;28;20093;-65
2021/10/22 05:32:16;;;;;;;6.50;2.60;;;;;;;12.49;44.71;101135.47;4993135;28;20046;-65
2021/10/22 05:34:43;;;;;;;7.10;2.90;;;;;;;12.49;44.83;101134.59;4980095;28;20490;-65
2021/10/22 05:37:10;;;;;;;5.22;2.20;;;;;;;12.49;44.79;101130.00;4999267;28;20101;-66
2021/10/22 05:39:37;;;;;;;8.07;3.40;;;;;;;12.50;44.50;101137.19;4991470;28;20053;-65
2021/10/22 05:42:07;;;;;;;4.97;2.40;;;;;;;12.50;44.75;101136.31;4993103;28;20094;-65
2021/10/22 05:44:33;;;;;;;5.75;2.38;;;;;;;12.50;44.74;101139.94;4991260;28;20109;-65
2021/10/22 05:47:00;;;;;;;6.43;2.33;;;;;;;12.49;44.92;101138.19;4977482;28;20046;-65
2021/10/22 05:49:27;;;;;;;7.05;2.20;;;;;;;12.49;44.83;101131.84;4995902;28;20064;-65
2021/10/22 05:51:54;;;;;;;5.95;2.38;;;;;;;12.48;44.75;101133.72;4992929;28;20061;-65
2021/10/22 05:54:20;;;;;;;5.13;2.30;;;;;;;12.48;44.90;101132.84;5011003;28;20101;-65
2021/10/22 05:56:47;;;;;;;5.97;2.35;;;;;;;12.51;44.80;101130.78;5002347;28;20451;-66
2021/10/22 05:59:14;;;;;;;5.55;2.20;;;;;;;12.50;44.84;101128.16;4991550;28;20116;-65
2021/10/22 06:01:41;;;;;;;10.90;2.65;;;;;;;12.50;44.77;101125.44;4992973;28;20157;-65
2021/10/22 06:04:07;;;;;;;5.70;2.10;;;;;;;12.49;44.90;101124.56;4992197;28;20061;-65
2021/10/22 06:06:34;;;;;;;5.70;2.08;;;;;;;12.50;44.75;101122.72;4995363;28;20050;-65
2021/10/22 06:09:01;;;;;;;6.55;2.03;;;;;;;12.49;44.76;101121.84;4988955;28;20129;-65
2021/10/22 06:11:28;;;;;;;4.75;2.05;;;;;;;12.49;44.79;101119.13;4991113;28;20050;-65
2021/10/22 06:13:54;;;;;;;5.95;1.83;;;;;;;12.49;45.01;101129.13;4990156;28;20050;-65
2021/10/22 06:16:22;;;;;;;4.90;2.00;;;;;;;12.50;44.97;101120.00;4989826;28;20069;-65
2021/10/22 06:18:49;;;;;;;5.32;1.75;;;;;;;12.48;44.73;101117.38;4987920;28;20046;-65
2021/10/22 06:21:23;;;;;;;5.93;1.92;;;;;;;12.51;44.73;101125.34;4987778;28;20089;-66
2021/10/22 06:24:08;;;;;;;7.28;2.35;;;;;;;12.51;44.50;101113.56;4987993;28;20497;-65
2021/10/22 06:26:42;;;;;;;4.82;1.65;;;;;;;12.50;44.75;101123.59;4990055;28;20047;-65
2021/10/22 06:29:11;;;;;;;6.10;1.90;;;;;;;12.51;44.65;101106.28;4990083;28;20093;-65
2021/10/22 06:31:40;;;;;;;5.03;2.00;;;;;;;12.52;44.51;101107.13;4992001;28;20087;-65
2021/10/22 06:34:08;;;;;;;5.05;1.88;;;;;;;12.50;44.81;101112.69;4993453;28;20062;-65
2021/10/22 06:36:35;;;;;;;3.63;1.80;;;;;;;12.51;44.37;101106.28;4993083;28;20800;-65
2021/10/22 06:39:03;;;;;;;5.38;1.90;;;;;;;12.51;44.59;101099.94;4990702;28;20049;-65
2021/10/22 06:41:32;;;;;;;4.38;1.92;;;;;;;12.48;44.61;101103.75;4991185;28;20145;-65
2021/10/22 06:43:59;;;;;;;6.68;1.77;;;;;;;12.49;44.56;101102.78;4972690;28;20481;-65
2021/10/22 06:46:26;;;;;;;4.88;1.67;;;;;;;12.49;44.61;101099.19;4990537;28;20173;-65
2021/10/22 06:48:54;;;;;;;7.15;1.70;;;;;;;12.48;44.68;101106.47;4978284;28;20472;-65
2021/10/22 06:51:21;;;;;;;5.22;1.70;;;;;;;12.48;44.47;101111.03;4989143;28;20051;-65
2021/10/22 06:53:48;;;;;;;5.88;1.80;;;;;;;12.47;44.47;101110.19;4988123;28;20085;-65
2021/10/22 06:56:15;;;;;;;5.05;1.85;;;;;;;12.46;44.51;101113.88;4996290;28;20085;-65
2021/10/22 06:58:43;;;;;;;6.53;1.90;;;;;;;12.46;44.33;101118.44;4978329;28;20497;-65
2021/10/22 07:01:10;;;;;;;5.50;1.50;;;;;;;12.44;44.69;101115.81;5011467;28;20053;-65
2021/10/22 07:03:39;;;;;;;5.03;1.67;;;;;;;12.45;44.73;101114.84;4989158;28;20054;-65
2021/10/22 07:09:11;;;;;;;5.43;1.90;;;;;;;12.47;44.62;101106.56;4907652;29;20099;-65
2021/10/22 07:11:38;;;;;;;3.95;1.42;;;;;;;12.50;44.52;101117.25;4911692;29;20420;-65
2021/10/22 07:14:08;;;;;;;4.53;1.73;;;;;;;12.52;44.73;101121.59;4947527;28;20121;-65
2021/10/22 07:16:38;;;;;;;6.15;2.20;;;;;;;12.53;44.57;101122.47;4990932;28;20158;-65
2021/10/22 07:19:05;;;;;;;4.90;1.50;;;;;;;12.53;44.75;101126.06;4986449;28;20097;-65
2021/10/22 07:21:33;;;;;;;3.78;1.50;;;;;;;12.55;44.70;101124.13;4990886;28;20055;-65
2021/10/22 07:24:05;;;;;;;3.95;1.40;;;;;;;12.56;44.50;101130.44;4986924;28;20065;-65
2021/10/22 07:26:32;;;;;;;4.80;1.80;;;;;;;12.56;44.55;101136.75;4991736;28;20367;-65
2021/10/22 07:28:59;;;;;;;4.70;1.67;;;;;;;12.58;44.59;101139.38;4991217;28;20050;-65
2021/10/22 07:31:25;;;;;;;4.45;1.55;;;;;;;12.58;44.61;101137.53;4992211;28;20082;-65
2021/10/22 07:33:52;;;;;;;4.47;1.42;;;;;;;12.61;44.53;101143.72;4966616;28;20620;-65
2021/10/22 07:36:23;;;;;;;5.28;1.83;;;;;;;12.63;44.85;101145.38;5001112;28;20042;-65
2021/10/22 07:39:03;;;;;;;6.15;1.60;;;;;;;12.63;44.74;101153.53;4987555;28;20070;-65
2021/10/22 07:41:29;;;;;;;2.33;1.25;;;;;;;12.65;44.80;101148.00;4985361;28;20073;-65
2021/10/22 07:43:56;;;;;;;5.32;1.52;;;;;;;12.67;44.78;101154.22;4989166;28;20062;-65
2021/10/22 07:46:23;;;;;;;4.47;1.75;;;;;;;12.69;44.75;101155.81;4986491;28;20093;-65
2021/10/22 07:48:50;;;;;;;5.28;1.30;;;;;;;12.71;44.85;101153.00;4990887;28;20050;-65
2021/10/22 07:51:16;;;;;;;5.53;1.75;;;;;;;12.74;44.89;101150.06;4990472;28;20054;-65
2021/10/22 07:53:43;;;;;;;4.40;1.45;;;;;;;12.77;44.86;101163.44;4991119;28;20093;-65
2021/10/22 07:56:10;;;;;;;4.72;1.33;;;;;;;12.80;44.96;101161.38;4989461;28;20524;-65
2021/10/22 07:58:36;;;;;;;5.13;1.60;;;;;;;12.81;44.75;101157.69;4987288;28;20432;-65
2021/10/22 08:01:03;;;;;;;5.20;1.42;;;;;;;12.85;44.94;101152.88;4992023;28;20062;-65
2021/10/22 08:03:30;;;;;;;4.45;1.50;;;;;;;12.86;45.04;101158.22;4990943;28;20081;-65
2021/10/22 08:05:56;;;;;;;5.38;1.70;;;;;;;12.90;44.90;101158.88;4989711;28;20043;-65
2021/10/22 08:08:23;;;;;;;3.78;1.83;;;;;;;12.91;44.86;101166.09;4992662;28;20046;-65
2021/10/22 08:10:50;;;;;;;5.32;1.52;;;;;;;12.94;44.77;101166.72;4990508;28;20058;-65
2021/10/22 08:13:16;;;;;;;3.63;1.45;;;;;;;12.96;44.70;101177.50;4987327;28;20050;-65
2021/10/22 08:15:44;;;;;;;3.45;1.60;;;;;;;13.00;44.56;101172.72;4989265;28;20050;-65
2021/10/22 08:18:12;;;;;;;4.15;1.42;;;;;;;13.02;44.55;101170.75;4989924;28;20053;-65
2021/10/22 08:20:48;;;;;;;5.28;1.60;;;;;;;13.03;44.79;101176.09;4971558;28;20082;-65
2021/10/22 08:23:17;;;;;;;2.88;1.40;;;;;;;13.05;44.58;101171.41;4988162;28;20097;-65
2021/10/22 08:25:46;;;;;;;3.72;1.30;;;;;;;13.09;45.04;101177.53;4971938;28;20055;-65
2021/10/22 08:28:12;;;;;;;3.88;1.83;;;;;;;13.11;44.89;101187.31;4991800;28;20125;-65
2021/10/22 08:30:40;;;;;;;4.20;1.35;;;;;;;13.15;44.95;101179.81;4971654;28;20055;-65
2021/10/22 08:33:10;;;;;;;3.72;1.40;;;;;;;13.17;45.32;101176.03;4989574;28;20046;-65
2021/10/22 08:35:37;;;;;;;5.03;1.40;;;;;;;13.19;44.96;101176.75;4972536;28;20050;-65
2021/10/22 08:38:09;;;;;;;5.32;1.42;;;;;;;13.23;45.22;101180.13;4989812;28;20050;-66
2021/10/22 08:40:36;;;;;;;5.15;1.30;;;;;;;13.27;45.95;101177.06;4989726;28;20429;-65
2021/10/22 08:43:04;;;;;;;5.13;1.50;;;;;;;13.35;45.34;101176.50;4989616;28;20042;-65
2021/10/22 08:45:33;;;;;;;6.05;1.50;;;;;;;13.41;45.33;101176.06;4989268;28;20109;-65
2021/10/22 08:48:04;;;;;;;4.38;1.40;;;;;;;13.48;45.15;101176.50;4968569;28;20513;-65
2021/10/22 08:50:30;;;;;;;4.32;1.30;;;;;;;13.50;44.91;101185.44;4989475;28;20054;-65
2021/10/22 08:52:57;;;;;;;7.57;1.48;;;;;;;13.54;44.80;101193.28;4982694;28;20128;-64
2021/10/22 08:55:24;;;;;;;4.00;1.30;;;;;;;13.58;44.91;101192.06;4986761;28;20046;-65
2021/10/22 08:57:51;;;;;;;3.60;1.30;;;;;;;13.62;45.23;101198.16;4989003;28;20047;-65
2021/10/22 09:00:20;;;;;;;4.05;1.35;;;;;;;13.66;45.16;101200.56;4996435;28;20441;-65
2021/10/22 09:02:49;;;;;;;4.40;1.25;;;;;;;13.69;44.98;101194.84;4992357;28;20069;-65
2021/10/22 09:05:20;;;;;;;5.47;1.65;;;;;;;13.75;45.19;101185.38;4990101;28;20086;-65
2021/10/22 09:07:51;;;;;;;7.05;1.33;;;;;;;13.79;44.94;101185.97;4991932;28;20085;-65
2021/10/22 09:10:28;;;;;;;4.05;1.30;;;;;;;13.84;44.74;101195.56;4990377;28;20642;-65
2021/10/22 09:13:04;;;;;;;6.05;2.10;;;;;;;13.83;44.52;101195.69;4973388;28;20046;-66
2021/10/22 09:15:40;;;;;;;4.50;1.38;;;;;;;13.88;44.92;101198.94;4993408;28;20445;-65
2021/10/22 09:18:28;;;;;;;4.57;1.38;;;;;;;13.90;44.92;101197.84;4991484;28;20505;-65
2021/10/22 09:21:00;;;;;;;6.18;1.30;;;;;;;13.91;44.96;101188.69;4989421;28;20058;-65
2021/10/22 09:23:28;;;;;;;3.67;1.70;;;;;;;13.96;44.72;101186.47;4993496;28;20051;-65
2021/10/22 09:26:27;;;;;;;4.05;1.40;;;;;;;13.98;44.63;101191.81;4992874;28;20109;-65
2021/10/22 09:28:55;;;;;;;4.45;1.40;;;;;;;14.00;44.73;101198.03;4992612;28;20359;-65
2021/10/22 09:31:23;;;;;;;4.25;1.50;;;;;;;14.04;44.69;101184.03;4986530;28;20532;-65
2021/10/22 09:33:51;;;;;;;6.70;1.48;;;;;;;14.05;44.58;101187.63;4995590;28;20050;-65
2021/10/22 09:36:30;;;;;;;4.45;1.58;;;;;;;14.09;44.49;101189.13;5005255;28;20629;-65
2021/10/22 09:39:17;;;;;;;4.22;1.45;;;;;;;14.10;44.69;101196.31;4994041;28;20437;-65
2021/10/22 09:42:00;;;;;;;5.35;1.50;;;;;;;14.12;44.48;101190.75;4970027;28;20705;-65
2021/10/22 09:44:39;;;;;;;4.50;1.27;;;;;;;14.12;44.76;101196.22;4993181;28;20077;-65
2021/10/22 09:47:08;;;;;;;5.32;1.38;;;;;;;14.16;45.04;101200.47;4990186;28;20046;-65
2021/10/22 09:49:36;;;;;;;4.88;1.35;;;;;;;14.21;44.79;101200.97;4983048;28;20055;-65
2021/10/22 09:52:03;;;;;;;4.03;1.25;;;;;;;14.24;45.05;101196.16;4976071;28;21677;-65
2021/10/22 09:54:32;;;;;;;4.43;1.40;;;;;;;14.30;44.58;101192.94;5003539;28;20058;-65
2021/10/22 09:57:07;;;;;;;3.95;1.50;;;;;;;14.35;44.38;101200.78;4987853;28;20042;-65
2021/10/22 09:59:34;;;;;;;3.97;1.33;;;;;;;14.36;44.91;101206.13;4992181;28;20085;-65
2021/10/22 10:02:01;;;;;;;4.18;1.50;;;;;;;14.41;45.05;101200.38;4979906;28;20050;-65
2021/10/22 10:04:30;;;;;;;7.53;1.80;;;;;;;14.45;44.87;101201.84;4988175;28;20076;-65
2021/10/22 10:07:04;;;;;;;4.75;1.30;;;;;;;14.49;45.42;101184.25;4990238;28;20065;-65
2021/10/22 10:09:31;;;;;;;6.30;1.50;;;;;;;14.55;45.12;101186.50;4991414;28;20112;-65
2021/10/22 10:12:01;;;;;;;6.72;1.45;;;;;;;14.63;44.99;101192.22;4987278;28;20085;-65
2021/10/22 10:14:32;;;;;;;3.47;1.27;;;;;;;14.76;45.06;101187.53;4981087;28;20085;-65
2021/10/22 10:17:02;;;;;;;4.72;1.58;;;;;;;14.80;45.13;101194.50;4990764;28;20046;-65
2021/10/22 10:19:37;;;;;;;4.05;1.52;;;;;;;14.87;44.86;101194.88;4992526;28;20046;-65
2021/10/22 10:22:07;;;;;;;4.57;1.58;;;;;;;14.96;45.33;101205.09;4989731;28;20112;-65
2021/10/22 10:24:41;;;;;;;3.42;1.13;;;;;;;15.04;44.86;101197.16;4989902;28;21101;-65
2021/10/22 10:27:14;;;;;;;3.60;1.45;;;;;;;15.15;44.69;101207.22;4988635;28;20092;-65
2021/10/22 10:29:55;;;;;;;4.05;1.30;;;;;;;15.23;44.50;101208.31;4988531;28;20543;-65
2021/10/22 10:32:23;;;;;;;3.35;1.35;;;;;;;15.32;44.99;101206.72;4989602;28;20514;-65
2021/10/22 10:34:52;;;;;;;3.95;1.30;;;;;;;15.40;44.61;101204.22;4990759;28;20077;-65
2021/10/22 10:37:33;;;;;;;7.57;1.40;;;;;;;15.50;44.59;101196.13;4981106;28;20117;-66
2021/10/22 10:40:13;;;;;;;3.38;1.25;;;;;;;15.58;44.17;101204.63;4988804;28;20050;-65
2021/10/22 10:42:57;;;;;;;5.45;1.38;;;;;;;15.67;44.45;101212.06;4992225;28;20058;-65
2021/10/22 10:45:24;;;;;;;5.40;1.38;;;;;;;15.73;44.47;101210.72;4990763;28;20070;-65
2021/10/22 10:47:54;;;;;;;5.10;1.23;;;;;;;15.81;44.00;101202.75;4980173;28;20038;-65
2021/10/22 10:50:54;;;;;;;4.32;1.30;;;;;;;15.92;43.40;101203.56;4973813;28;20120;-65
2021/10/22 10:53:30;;;;;;;3.80;1.30;;;;;;;15.99;43.11;101210.28;4966739;28;20050;-66
2021/10/22 10:55:59;;;;;;;3.08;1.20;;;;;;;16.01;43.72;101207.41;4989155;28;20090;-66
2021/10/22 10:58:26;;;;;;;3.22;1.33;;;;;;;16.05;43.53;101194.34;4973547;28;20054;-66
2021/10/22 11:00:56;;;;;;;5.43;1.42;;;;;;;16.09;43.12;101214.97;4991433;28;20175;-66
2021/10/22 11:03:26;;;;;;;4.78;1.30;;;;;;;16.14;43.35;101201.78;4990776;28;20101;-66
2021/10/22 11:05:53;;;;;;;5.32;1.65;;;;;;;16.15;42.68;101189.78;4987311;28;20190;-66
2021/10/22 11:08:38;;;;;;;4.10;1.23;;;;;;;16.16;42.69;101186.94;4989171;28;20136;-65
2021/10/22 11:11:27;;;;;;;7.13;1.30;;;;;;;16.15;42.77;101184.31;4990819;28;20050;-65
2021/10/22 11:13:54;;;;;;;4.43;1.40;;;;;;;16.18;43.07;101193.16;4990512;28;20073;-66
2021/10/22 11:16:43;;;;;;;3.42;1.30;;;;;;;16.20;42.80;101204.00;4990013;28;20054;-66
2021/10/22 11:19:22;;;;;;;4.07;1.40;;;;;;;16.24;42.64;101200.84;4984509;28;20137;-66
2021/10/22 11:22:01;;;;;;;3.80;1.52;;;;;;;16.27;43.30;101188.75;4987607;28;20046;-66
2021/10/22 11:24:31;;;;;;;2.88;1.20;;;;;;;16.30;43.04;101194.88;4989032;28;20050;-65
2021/10/22 11:27:06;;;;;;;3.50;1.73;;;;;;;16.39;42.69;101195.09;4989965;28;20053;-65
2021/10/22 11:29:57;;;;;;;4.35;1.42;;;;;;;16.41;42.65;101188.44;4986727;28;20058;-65
2021/10/22 11:32:26;;;;;;;5.40;1.65;;;;;;;16.50;43.30;101200.50;4981039;28;20113;-66
2021/10/22 11:34:57;;;;;;;4.63;1.40;;;;;;;16.58;42.80;101198.81;4997378;28;20419;-66
2021/10/22 11:37:27;;;;;;;3.63;1.17;;;;;;;16.63;42.44;101210.31;4994748;28;20046;-66
2021/10/22 11:39:57;;;;;;;3.30;1.08;;;;;;;16.71;42.11;101201.44;4973764;28;20431;-66